Tasman Sea — WDB5559 — position and weather

sailwx.info

Track history (hours):
 
Tides and Currents Weather Stations Pressure Air Temp Water Temp Dewpoint Dewpoint Depression Visibility Wind Speed Wind Dir Waves Ship Positions

Tasman Sea

Owner: Kirby Offshore Marine, LLC, Staten Island, NY. More information available from US FCC via Universal Licensing System and Coast Guard Vessel Documentation Center.

Last reported at 2015-Mar-26 02:21 UTC. Time now 2015-Mar-27 10:22 UTC.
Position N 41°39' W 070°41'.

Length 38 m; draft 5 m.

Type: Tug. MMSI: 366910960.

Date/timePositionNaut miles runAvg speedWind from/ knotsBaromVisibWave heightAir tempDewpointWater temp
2015-Mar-26 02:21N 41°39' W 070°41'6 7.8
2015-Mar-26 01:33N 41°34' W 070°45'8 8.3
2015-Mar-26 00:33N 41°29' W 070°54'8 7.9
2015-Mar-25 23:33N 41°25' W 071°03'8 8.1
2015-Mar-25 22:33N 41°25' W 071°14'7 7.1
2015-Mar-25 21:33N 41°27' W 071°23'8 8.3
2015-Mar-25 20:33N 41°35' W 071°19'8 8.1
2015-Mar-25 19:33N 41°43' W 071°20'5 4.6
2015-Mar-25 18:33N 41°47' W 071°22'0 0.0
2015-Mar-25 17:33N 41°47' W 071°22'0 0.0
2015-Mar-25 16:33N 41°47' W 071°22'0 0.0
2015-Mar-25 15:33N 41°47' W 071°22'0 0.0
2015-Mar-25 12:27N 41°47' W 071°22'0 0.0
2015-Mar-25 11:33N 41°47' W 071°22'0 0.0
2015-Mar-25 10:33N 41°47' W 071°22'0 0.0
2015-Mar-25 09:33N 41°47' W 071°22'0 0.0
2015-Mar-25 08:33N 41°47' W 071°22'0 0.0
2015-Mar-25 07:33N 41°47' W 071°22'0 0.1
2015-Mar-25 06:27N 41°47' W 071°22'5 5.1
2015-Mar-25 05:33N 41°43' W 071°20'6 5.6
2015-Mar-25 04:33N 41°37' W 071°18'7 6.8
2015-Mar-25 03:33N 41°31' W 071°21'7 7.1
2015-Mar-25 02:33N 41°24' W 071°22'7 7.3
2015-Mar-25 01:33N 41°16' W 071°22'7 6.8
2015-Mar-25 00:33N 41°10' W 071°23'7 6.9
2015-Mar-24 23:33N 41°06' W 071°31'7 7.1
2015-Mar-24 22:33N 41°03' W 071°40'7 6.7
2015-Mar-24 21:33N 41°00' W 071°48'7 6.7
2015-Mar-24 20:33N 40°58' W 071°56'7 7.0
2015-Mar-24 19:33N 40°55' W 072°05'7 7.2
2015-Mar-24 18:33N 40°52' W 072°13'7 7.3
2015-Mar-24 17:33N 40°50' W 072°22'8 7.3
2015-Mar-24 16:25N 40°47' W 072°33'74 4.9
2015-Mar-24 01:20N 40°39' W 074°10'0 0.0
2015-Mar-24 00:32N 40°39' W 074°10'0 0.0
2015-Mar-23 23:32N 40°39' W 074°10'0 0.0
2015-Mar-23 22:32N 40°39' W 074°10'0 0.0
2015-Mar-23 21:32N 40°39' W 074°10'0 0.0
2015-Mar-23 20:32N 40°39' W 074°10'0 0.0
2015-Mar-23 19:32N 40°39' W 074°10'0 0.0
2015-Mar-23 18:29N 40°39' W 074°10'0 0.0
2015-Mar-23 17:32N 40°39' W 074°10'0 0.0
2015-Mar-23 16:32N 40°39' W 074°10'0 0.0
2015-Mar-23 15:32N 40°39' W 074°10'0 0.0
2015-Mar-23 14:32N 40°39' W 074°10'0 0.0
2015-Mar-23 13:32N 40°39' W 074°10'0 0.0
2015-Mar-23 12:32N 40°39' W 074°10'0 0.0
2015-Mar-23 11:32N 40°39' W 074°10'1 0.7
2015-Mar-23 10:33N 40°39' W 074°11'3 0.5
2015-Mar-23 03:32N 40°36' W 074°12'0 0.0
2015-Mar-23 01:20N 40°36' W 074°12'2 1.2
2015-Mar-22 23:22N 40°38' W 074°12'6 7.7
2015-Mar-22 22:33N 40°39' W 074°04'5 5.1
2015-Mar-22 21:33N 40°42' W 073°58'0 0.0
2015-Mar-22 20:33N 40°42' W 073°58'0 0.0
2015-Mar-22 19:33N 40°42' W 073°58'0 0.0
2015-Mar-22 18:33N 40°42' W 073°58'0 0.0
2015-Mar-22 17:33N 40°42' W 073°58'0 0.0
2015-Mar-22 16:33N 40°42' W 073°58'0 0.0
2015-Mar-22 15:33N 40°42' W 073°58'0 0.0
2015-Mar-22 14:27N 40°42' W 073°58'0 0.0
2015-Mar-22 13:33N 40°42' W 073°58'0 0.0
2015-Mar-22 12:33N 40°42' W 073°58'0 0.3
2015-Mar-22 11:33N 40°43' W 073°58'0 0.3
2015-Mar-22 10:26N 40°43' W 073°58'17 6.0
2015-Mar-22 07:33N 40°54' W 073°41'8 7.6
2015-Mar-22 06:33N 40°58' W 073°32'7 7.4
2015-Mar-22 05:33N 41°00' W 073°23'8 7.6
2015-Mar-22 04:33N 41°02' W 073°13'10 9.7
2015-Mar-22 03:33N 41°04' W 073°01'1010.0
2015-Mar-22 02:33N 41°06' W 072°48'1010.4
2015-Mar-22 01:33N 41°08' W 072°34'1111.2
2015-Mar-22 00:33N 41°11' W 072°20'1010.1
2015-Mar-21 23:34N 41°14' W 072°07'8 8.3
2015-Mar-21 22:33N 41°15' W 071°56'7 7.4
2015-Mar-21 21:33N 41°16' W 071°47'8 7.9
2015-Mar-21 20:33N 41°18' W 071°36'8 8.1
2015-Mar-21 19:33N 41°18' W 071°25'9 8.8
2015-Mar-21 18:33N 41°20' W 071°14'10 9.3
2015-Mar-21 17:32N 41°25' W 071°03'59 1.5
2015-Mar-20 01:16N 42°23' W 070°51'56 5.0
2015-Mar-19 14:08N 41°27' W 070°60'3 6.1
2015-Mar-19 13:33N 41°25' W 071°03'9 8.5
2015-Mar-19 12:33N 41°25' W 071°15'6 6.4
2015-Mar-19 11:33N 41°28' W 071°22'7 7.3
2015-Mar-19 10:33N 41°34' W 071°19'7 6.9
2015-Mar-19 09:33N 41°41' W 071°19'6 1.8
2015-Mar-19 06:08N 41°47' W 071°22'0 0.0
2015-Mar-19 05:32N 41°47' W 071°22'0 0.0
2015-Mar-19 04:08N 41°47' W 071°22'0 0.0
2015-Mar-19 03:32N 41°47' W 071°22'0 0.0
2015-Mar-19 02:32N 41°47' W 071°22'0 0.0
2015-Mar-19 01:32N 41°47' W 071°22'0 0.0
2015-Mar-19 00:20N 41°47' W 071°22'0 0.0
2015-Mar-18 23:29N 41°47' W 071°22'0 0.0
2015-Mar-18 22:20N 41°47' W 071°22'0 0.0
2015-Mar-18 21:32N 41°47' W 071°22'1 0.6
2015-Mar-18 19:33N 41°48' W 071°23'0 0.3
2015-Mar-18 18:25N 41°48' W 071°24'0 0.0
2015-Mar-18 16:13N 41°48' W 071°24'0 0.0
2015-Mar-18 15:07N 41°48' W 071°24'0 0.0
2015-Mar-18 14:25N 41°48' W 071°24'0 0.0
2015-Mar-18 13:19N 41°48' W 071°24'0 0.0
2015-Mar-18 12:25N 41°48' W 071°24'0 0.0
2015-Mar-18 11:31N 41°48' W 071°24'0 0.0
2015-Mar-18 10:31N 41°48' W 071°24'0 0.0
2015-Mar-18 09:25N 41°48' W 071°24'0 0.0
2015-Mar-18 07:15N 41°48' W 071°24'0 0.0
2015-Mar-18 01:21N 41°48' W 071°24'0 0.0
2015-Mar-18 00:30N 41°48' W 071°24'0 0.0
2015-Mar-17 23:27N 41°48' W 071°24'0 0.0
2015-Mar-17 22:33N 41°48' W 071°24'0 0.0
2015-Mar-17 21:33N 41°48' W 071°24'0 0.0
2015-Mar-17 20:33N 41°48' W 071°24'0 0.0
2015-Mar-17 19:27N 41°48' W 071°24'0 0.0
2015-Mar-17 18:27N 41°48' W 071°24'0 0.0
2015-Mar-17 17:33N 41°48' W 071°24'0 0.0
2015-Mar-17 16:33N 41°48' W 071°24'1 0.6
2015-Mar-17 15:32N 41°49' W 071°24'0 0.1
2015-Mar-17 13:20N 41°49' W 071°24'0 0.0
2015-Mar-17 12:32N 41°49' W 071°24'0 0.0
2015-Mar-17 11:32N 41°49' W 071°24'0 0.0
2015-Mar-17 10:32N 41°49' W 071°24'2 1.1
2015-Mar-17 08:33N 41°47' W 071°22'7 7.0
2015-Mar-17 07:33N 41°41' W 071°19'7 7.1
2015-Mar-17 06:30N 41°33' W 071°19'2 2.2
2015-Mar-17 05:32N 41°31' W 071°21'0 0.1
2015-Mar-17 04:32N 41°31' W 071°21'0 0.0
2015-Mar-17 02:32N 41°31' W 071°21'0 0.1
2015-Mar-17 01:32N 41°31' W 071°21'0 0.1
2015-Mar-17 00:29N 41°31' W 071°21'0 0.1
2015-Mar-16 22:29N 41°31' W 071°21'0 0.1
2015-Mar-16 21:32N 41°31' W 071°21'0 0.0
2015-Mar-16 20:32N 41°31' W 071°21'0 0.0
2015-Mar-16 19:32N 41°31' W 071°21'0 0.1
2015-Mar-16 18:32N 41°31' W 071°21'0 0.2
2015-Mar-16 17:32N 41°31' W 071°21'0 0.0
2015-Mar-16 16:32N 41°31' W 071°21'0 0.0
2015-Mar-16 14:14N 41°31' W 071°21'0 0.0
2015-Mar-16 07:16N 41°31' W 071°21'0 0.0
2015-Mar-16 06:31N 41°31' W 071°21'0 0.2
2015-Mar-16 05:32N 41°31' W 071°21'0 0.0
2015-Mar-16 04:32N 41°31' W 071°21'2 1.4
2015-Mar-16 03:08N 41°29' W 071°21'4 7.0
2015-Mar-16 02:32N 41°25' W 071°22'  
Track history (hours):
 
Tides and Currents Weather Stations Pressure Air Temp Water Temp Dewpoint Dewpoint Depression Visibility Wind Speed Wind Dir Waves Ship Positions

Tasman Sea

Owner: Kirby Offshore Marine, LLC, Staten Island, NY. More information available from US FCC via Universal Licensing System and Coast Guard Vessel Documentation Center.

Last reported at 2015-Mar-26 02:21 UTC. Time now 2015-Mar-27 10:22 UTC.
Position N 41°39' W 070°41'.

Length 38 m; draft 5 m.

Type: Tug. MMSI: 366910960.

Date/timePositionNaut miles runAvg speedWind from/ knotsBaromVisibWave heightAir tempDewpointWater temp
2015-Mar-26 02:21N 41°39' W 070°41'6 7.8
2015-Mar-26 01:33N 41°34' W 070°45'8 8.3
2015-Mar-26 00:33N 41°29' W 070°54'8 7.9
2015-Mar-25 23:33N 41°25' W 071°03'8 8.1
2015-Mar-25 22:33N 41°25' W 071°14'7 7.1
2015-Mar-25 21:33N 41°27' W 071°23'8 8.3
2015-Mar-25 20:33N 41°35' W 071°19'8 8.1
2015-Mar-25 19:33N 41°43' W 071°20'5 4.6
2015-Mar-25 18:33N 41°47' W 071°22'0 0.0
2015-Mar-25 17:33N 41°47' W 071°22'0 0.0
2015-Mar-25 16:33N 41°47' W 071°22'0 0.0
2015-Mar-25 15:33N 41°47' W 071°22'0 0.0
2015-Mar-25 12:27N 41°47' W 071°22'0 0.0
2015-Mar-25 11:33N 41°47' W 071°22'0 0.0
2015-Mar-25 10:33N 41°47' W 071°22'0 0.0
2015-Mar-25 09:33N 41°47' W 071°22'0 0.0
2015-Mar-25 08:33N 41°47' W 071°22'0 0.0
2015-Mar-25 07:33N 41°47' W 071°22'0 0.1
2015-Mar-25 06:27N 41°47' W 071°22'5 5.1
2015-Mar-25 05:33N 41°43' W 071°20'6 5.6
2015-Mar-25 04:33N 41°37' W 071°18'7 6.8
2015-Mar-25 03:33N 41°31' W 071°21'7 7.1
2015-Mar-25 02:33N 41°24' W 071°22'7 7.3
2015-Mar-25 01:33N 41°16' W 071°22'7 6.8
2015-Mar-25 00:33N 41°10' W 071°23'7 6.9
2015-Mar-24 23:33N 41°06' W 071°31'7 7.1
2015-Mar-24 22:33N 41°03' W 071°40'7 6.7
2015-Mar-24 21:33N 41°00' W 071°48'7 6.7
2015-Mar-24 20:33N 40°58' W 071°56'7 7.0
2015-Mar-24 19:33N 40°55' W 072°05'7 7.2
2015-Mar-24 18:33N 40°52' W 072°13'7 7.3
2015-Mar-24 17:33N 40°50' W 072°22'8 7.3
2015-Mar-24 16:25N 40°47' W 072°33'74 4.9
2015-Mar-24 01:20N 40°39' W 074°10'0 0.0
2015-Mar-24 00:32N 40°39' W 074°10'0 0.0
2015-Mar-23 23:32N 40°39' W 074°10'0 0.0
2015-Mar-23 22:32N 40°39' W 074°10'0 0.0
2015-Mar-23 21:32N 40°39' W 074°10'0 0.0
2015-Mar-23 20:32N 40°39' W 074°10'0 0.0
2015-Mar-23 19:32N 40°39' W 074°10'0 0.0
2015-Mar-23 18:29N 40°39' W 074°10'0 0.0
2015-Mar-23 17:32N 40°39' W 074°10'0 0.0
2015-Mar-23 16:32N 40°39' W 074°10'0 0.0
2015-Mar-23 15:32N 40°39' W 074°10'0 0.0
2015-Mar-23 14:32N 40°39' W 074°10'0 0.0
2015-Mar-23 13:32N 40°39' W 074°10'0 0.0
2015-Mar-23 12:32N 40°39' W 074°10'0 0.0
2015-Mar-23 11:32N 40°39' W 074°10'1 0.7
2015-Mar-23 10:33N 40°39' W 074°11'3 0.5
2015-Mar-23 03:32N 40°36' W 074°12'0 0.0
2015-Mar-23 01:20N 40°36' W 074°12'2 1.2
2015-Mar-22 23:22N 40°38' W 074°12'6 7.7
2015-Mar-22 22:33N 40°39' W 074°04'5 5.1
2015-Mar-22 21:33N 40°42' W 073°58'0 0.0
2015-Mar-22 20:33N 40°42' W 073°58'0 0.0
2015-Mar-22 19:33N 40°42' W 073°58'0 0.0
2015-Mar-22 18:33N 40°42' W 073°58'0 0.0
2015-Mar-22 17:33N 40°42' W 073°58'0 0.0
2015-Mar-22 16:33N 40°42' W 073°58'0 0.0
2015-Mar-22 15:33N 40°42' W 073°58'0 0.0
2015-Mar-22 14:27N 40°42' W 073°58'0 0.0
2015-Mar-22 13:33N 40°42' W 073°58'0 0.0
2015-Mar-22 12:33N 40°42' W 073°58'0 0.3
2015-Mar-22 11:33N 40°43' W 073°58'0 0.3
2015-Mar-22 10:26N 40°43' W 073°58'17 6.0
2015-Mar-22 07:33N 40°54' W 073°41'8 7.6
2015-Mar-22 06:33N 40°58' W 073°32'7 7.4
2015-Mar-22 05:33N 41°00' W 073°23'8 7.6
2015-Mar-22 04:33N 41°02' W 073°13'10 9.7
2015-Mar-22 03:33N 41°04' W 073°01'1010.0
2015-Mar-22 02:33N 41°06' W 072°48'1010.4
2015-Mar-22 01:33N 41°08' W 072°34'1111.2
2015-Mar-22 00:33N 41°11' W 072°20'1010.1
2015-Mar-21 23:34N 41°14' W 072°07'8 8.3
2015-Mar-21 22:33N 41°15' W 071°56'7 7.4
2015-Mar-21 21:33N 41°16' W 071°47'8 7.9
2015-Mar-21 20:33N 41°18' W 071°36'8 8.1
2015-Mar-21 19:33N 41°18' W 071°25'9 8.8
2015-Mar-21 18:33N 41°20' W 071°14'10 9.3
2015-Mar-21 17:32N 41°25' W 071°03'59 1.5
2015-Mar-20 01:16N 42°23' W 070°51'56 5.0
2015-Mar-19 14:08N 41°27' W 070°60'3 6.1
2015-Mar-19 13:33N 41°25' W 071°03'9 8.5
2015-Mar-19 12:33N 41°25' W 071°15'6 6.4
2015-Mar-19 11:33N 41°28' W 071°22'7 7.3
2015-Mar-19 10:33N 41°34' W 071°19'7 6.9
2015-Mar-19 09:33N 41°41' W 071°19'6 1.8
2015-Mar-19 06:08N 41°47' W 071°22'0 0.0
2015-Mar-19 05:32N 41°47' W 071°22'0 0.0
2015-Mar-19 04:08N 41°47' W 071°22'0 0.0
2015-Mar-19 03:32N 41°47' W 071°22'0 0.0
2015-Mar-19 02:32N 41°47' W 071°22'0 0.0
2015-Mar-19 01:32N 41°47' W 071°22'0 0.0
2015-Mar-19 00:20N 41°47' W 071°22'0 0.0
2015-Mar-18 23:29N 41°47' W 071°22'0 0.0
2015-Mar-18 22:20N 41°47' W 071°22'0 0.0
2015-Mar-18 21:32N 41°47' W 071°22'1 0.6
2015-Mar-18 19:33N 41°48' W 071°23'0 0.3
2015-Mar-18 18:25N 41°48' W 071°24'0 0.0
2015-Mar-18 16:13N 41°48' W 071°24'0 0.0
2015-Mar-18 15:07N 41°48' W 071°24'0 0.0
2015-Mar-18 14:25N 41°48' W 071°24'0 0.0
2015-Mar-18 13:19N 41°48' W 071°24'0 0.0
2015-Mar-18 12:25N 41°48' W 071°24'0 0.0
2015-Mar-18 11:31N 41°48' W 071°24'0 0.0
2015-Mar-18 10:31N 41°48' W 071°24'0 0.0
2015-Mar-18 09:25N 41°48' W 071°24'0 0.0
2015-Mar-18 07:15N 41°48' W 071°24'0 0.0
2015-Mar-18 01:21N 41°48' W 071°24'0 0.0
2015-Mar-18 00:30N 41°48' W 071°24'0 0.0
2015-Mar-17 23:27N 41°48' W 071°24'0 0.0
2015-Mar-17 22:33N 41°48' W 071°24'0 0.0
2015-Mar-17 21:33N 41°48' W 071°24'0 0.0
2015-Mar-17 20:33N 41°48' W 071°24'0 0.0
2015-Mar-17 19:27N 41°48' W 071°24'0 0.0
2015-Mar-17 18:27N 41°48' W 071°24'0 0.0
2015-Mar-17 17:33N 41°48' W 071°24'0 0.0
2015-Mar-17 16:33N 41°48' W 071°24'1 0.6
2015-Mar-17 15:32N 41°49' W 071°24'0 0.1
2015-Mar-17 13:20N 41°49' W 071°24'0 0.0
2015-Mar-17 12:32N 41°49' W 071°24'0 0.0
2015-Mar-17 11:32N 41°49' W 071°24'0 0.0
2015-Mar-17 10:32N 41°49' W 071°24'2 1.1
2015-Mar-17 08:33N 41°47' W 071°22'7 7.0
2015-Mar-17 07:33N 41°41' W 071°19'7 7.1
2015-Mar-17 06:30N 41°33' W 071°19'2 2.2
2015-Mar-17 05:32N 41°31' W 071°21'0 0.1
2015-Mar-17 04:32N 41°31' W 071°21'0 0.0
2015-Mar-17 02:32N 41°31' W 071°21'0 0.1
2015-Mar-17 01:32N 41°31' W 071°21'0 0.1
2015-Mar-17 00:29N 41°31' W 071°21'0 0.1
2015-Mar-16 22:29N 41°31' W 071°21'0 0.1
2015-Mar-16 21:32N 41°31' W 071°21'0 0.0
2015-Mar-16 20:32N 41°31' W 071°21'0 0.0
2015-Mar-16 19:32N 41°31' W 071°21'0 0.1
2015-Mar-16 18:32N 41°31' W 071°21'0 0.2
2015-Mar-16 17:32N 41°31' W 071°21'0 0.0
2015-Mar-16 16:32N 41°31' W 071°21'0 0.0
2015-Mar-16 14:14N 41°31' W 071°21'0 0.0
2015-Mar-16 07:16N 41°31' W 071°21'0 0.0
2015-Mar-16 06:31N 41°31' W 071°21'0 0.2
2015-Mar-16 05:32N 41°31' W 071°21'0 0.0
2015-Mar-16 04:32N 41°31' W 071°21'2 1.4
2015-Mar-16 03:08N 41°29' W 071°21'4 7.0
2015-Mar-16 02:32N 41°25' W 071°22'  

Dump ship's entire track history